Time;durP1;ratioP1;P1;durP2;ratioP2;P2;SDS_P1;SDS_P2;PMS_P1;PMS_P2;Temp;Humidity;BMP_temperature;BMP_pressure;BME280_temperature;BME280_humidity;BME280_pressure;Samples;Min_cycle;Max_cycle;Signal;HPM_P1;HPM_P2
2022/05/25 05:02:43;;;;;;;2.10;0.40;;;14.80;87.30;;;;;;6127188;23;20294;-79
2022/05/25 05:05:12;;;;;;;3.30;0.50;;;14.80;87.20;;;;;;6160815;23;20002;-79
2022/05/25 05:07:39;;;;;;;2.67;0.40;;;14.70;86.50;;;;;;6193048;23;20005;-79
2022/05/25 05:10:06;;;;;;;1.33;0.40;;;14.70;87.20;;;;;;6191917;23;20148;-79
2022/05/25 05:12:32;;;;;;;1.58;0.50;;;14.60;87.50;;;;;;6167008;23;19997;-79
2022/05/25 05:14:58;;;;;;;1.70;0.52;;;14.60;87.70;;;;;;6192969;23;20052;-79
2022/05/25 05:17:24;;;;;;;2.80;0.60;;;14.60;87.90;;;;;;6142150;23;20013;-79
2022/05/25 05:20:12;;;;;;;1.73;0.52;;;14.50;88.40;;;;;;6166994;23;20019;-81
2022/05/25 05:22:38;;;;;;;2.58;0.47;;;14.50;88.10;;;;;;6167753;23;20029;-78
2022/05/25 05:25:05;;;;;;;1.73;0.50;;;14.50;87.30;;;;;;6193007;23;20178;-80
2022/05/25 05:27:30;;;;;;;2.63;0.57;;;14.50;87.90;;;;;;6193344;23;20001;-79
2022/05/25 05:30:04;;;;;;;1.38;0.50;;;14.50;87.90;;;;;;6166649;23;20068;-78
2022/05/25 05:32:30;;;;;;;1.90;0.70;;;14.50;88.00;;;;;;6137222;23;20060;-78
2022/05/25 05:34:57;;;;;;;2.25;0.50;;;14.60;88.40;;;;;;6162615;23;20306;-79
2022/05/25 05:37:38;;;;;;;1.90;0.43;;;14.60;87.80;;;;;;6163942;23;20057;-80
2022/05/25 05:40:07;;;;;;;1.73;0.40;;;14.70;87.10;;;;;;6163524;23;20005;-79
2022/05/25 05:42:36;;;;;;;3.00;0.60;;;14.80;86.90;;;;;;6113312;23;20256;-79
2022/05/25 05:45:08;;;;;;;2.05;0.50;;;14.70;86.90;;;;;;6136844;23;20219;-79
2022/05/25 05:47:43;;;;;;;1.60;0.50;;;14.70;87.40;;;;;;6191776;23;20338;-80
2022/05/25 05:50:10;;;;;;;1.45;0.50;;;14.60;87.50;;;;;;6192832;23;20008;-78
2022/05/25 05:52:36;;;;;;;2.40;0.40;;;14.60;88.20;;;;;;6193429;23;20015;-78
2022/05/25 05:55:03;;;;;;;3.58;0.30;;;14.70;87.80;;;;;;6192558;23;20460;-79
2022/05/25 05:57:29;;;;;;;1.38;0.30;;;14.90;87.50;;;;;;6166481;23;20004;-78
2022/05/25 05:59:55;;;;;;;3.70;0.90;;;15.10;86.30;;;;;;6166500;23;20016;-79
2022/05/25 06:02:21;;;;;;;2.10;0.50;;;15.30;86.10;;;;;;6190859;23;20207;-77
2022/05/25 06:04:47;;;;;;;1.42;0.50;;;15.50;85.10;;;;;;6166692;23;20016;-77
2022/05/25 06:07:13;;;;;;;1.70;0.60;;;15.60;84.70;;;;;;6192280;23;20205;-78
2022/05/25 06:09:38;;;;;;;2.42;0.40;;;15.70;85.20;;;;;;6193070;23;20055;-79
2022/05/25 06:12:04;;;;;;;2.45;0.52;;;15.80;85.00;;;;;;6192644;23;20040;-80
2022/05/25 06:14:30;;;;;;;1.73;0.40;;;15.90;83.10;;;;;;6141049;23;20005;-79
2022/05/25 06:19:40;;;;;;;2.10;0.60;;;16.20;82.20;;;;;;6191461;23;20032;-79
2022/05/25 06:22:07;;;;;;;2.15;0.40;;;16.30;82.00;;;;;;6165344;23;20001;-80
2022/05/25 06:24:52;;;;;;;2.97;0.45;;;16.50;81.10;;;;;;6165625;23;19996;-80
2022/05/25 06:27:20;;;;;;;2.03;0.35;;;16.80;80.40;;;;;;6191523;23;20451;-79
2022/05/25 06:29:48;;;;;;;2.20;0.47;;;16.90;80.00;;;;;;6191928;23;19990;-79
2022/05/25 06:32:19;;;;;;;2.75;0.50;;;16.90;80.50;;;;;;6190642;23;20512;-79
2022/05/25 06:34:48;;;;;;;2.75;0.73;;;17.10;79.40;;;;;;6165545;23;20057;-78
2022/05/25 06:37:20;;;;;;;1.65;0.50;;;17.30;78.60;;;;;;6164747;23;20005;-78
2022/05/25 06:39:46;;;;;;;1.88;0.40;;;17.40;79.10;;;;;;6165539;23;20059;-78
2022/05/25 06:42:12;;;;;;;3.15;0.40;;;17.50;79.40;;;;;;6165247;23;20190;-78
2022/05/25 06:44:45;;;;;;;2.47;0.50;;;17.70;78.40;;;;;;6142619;23;20001;-79
2022/05/25 06:47:16;;;;;;;1.85;0.55;;;17.90;78.00;;;;;;6190318;23;20053;-79
2022/05/25 06:49:41;;;;;;;2.13;0.55;;;18.00;77.80;;;;;;6165948;23;20032;-79
2022/05/25 06:52:12;;;;;;;2.03;0.35;;;18.00;77.40;;;;;;6191850;23;20020;-80
2022/05/25 06:54:38;;;;;;;3.00;0.60;;;18.00;77.20;;;;;;6194423;23;20011;-79
2022/05/25 06:57:04;;;;;;;2.45;0.45;;;18.00;77.00;;;;;;6167859;23;20081;-80
2022/05/25 06:59:30;;;;;;;1.83;0.43;;;18.00;77.30;;;;;;6165533;23;20294;-80
2022/05/25 07:01:56;;;;;;;1.33;0.40;;;17.90;77.70;;;;;;6151663;23;20398;-79
2022/05/25 07:04:22;;;;;;;1.92;0.45;;;17.70;78.50;;;;;;6190366;23;19997;-80
2022/05/25 07:06:48;;;;;;;3.25;0.50;;;17.60;78.40;;;;;;6191257;23;20000;-80
2022/05/25 07:09:14;;;;;;;3.03;0.50;;;17.30;79.50;;;;;;6190717;23;20012;-78
2022/05/25 07:11:42;;;;;;;3.70;0.63;;;17.20;79.40;;;;;;6190678;23;20008;-79
2022/05/25 07:14:11;;;;;;;2.83;0.55;;;17.00;79.40;;;;;;6190725;23;20156;-81
2022/05/25 07:16:37;;;;;;;3.47;0.40;;;16.80;80.20;;;;;;6160933;23;20020;-80
2022/05/25 07:19:03;;;;;;;3.90;0.55;;;16.90;80.20;;;;;;6191077;23;20009;-80
2022/05/25 07:21:32;;;;;;;1.83;0.65;;;17.00;80.40;;;;;;6165251;23;20051;-80
2022/05/25 07:24:00;;;;;;;6.47;0.68;;;17.10;79.50;;;;;;6140330;23;20337;-81
2022/05/25 07:26:28;;;;;;;2.88;0.63;;;17.20;78.50;;;;;;6165833;23;20001;-81
2022/05/25 07:28:54;;;;;;;3.42;0.52;;;17.20;79.40;;;;;;6165391;23;20209;-81
2022/05/25 07:31:42;;;;;;;2.40;0.40;;;17.30;78.70;;;;;;6147810;23;20056;-80
2022/05/25 07:34:21;;;;;;;2.05;0.43;;;17.50;78.30;;;;;;6161562;23;20239;-80
2022/05/25 07:36:52;;;;;;;2.78;0.50;;;17.80;77.70;;;;;;6135688;23;20045;-79
2022/05/25 07:39:21;;;;;;;1.98;0.32;;;18.00;78.00;;;;;;6161303;23;20200;-80
2022/05/25 07:41:51;;;;;;;4.07;0.50;;;18.00;76.40;;;;;;6135866;23;20033;-79
2022/05/25 07:44:24;;;;;;;3.50;0.40;;;18.20;76.70;;;;;;6161359;23;20020;-80
2022/05/25 07:46:50;;;;;;;1.33;0.30;;;18.30;75.70;;;;;;6135124;23;20009;-80
2022/05/25 07:49:17;;;;;;;2.53;0.40;;;18.50;75.80;;;;;;6135445;23;19993;-81
2022/05/25 07:51:43;;;;;;;1.73;0.40;;;18.70;74.90;;;;;;6137047;23;20025;-80
2022/05/25 07:54:09;;;;;;;3.40;0.60;;;19.00;74.40;;;;;;6162176;23;20001;-80
2022/05/25 07:56:37;;;;;;;2.33;0.77;;;19.10;73.10;;;;;;6136177;23;20002;-80
2022/05/25 07:59:06;;;;;;;3.47;0.80;;;19.10;72.00;;;;;;6135476;23;20014;-80
2022/05/25 08:07:09;;;;;;;3.53;0.60;;;18.70;73.10;;;;;;6190850;23;20156;-80
2022/05/25 08:09:36;;;;;;;1.67;0.40;;;18.80;72.20;;;;;;6191766;23;20020;-80
2022/05/25 08:12:05;;;;;;;1.50;0.40;;;19.10;72.10;;;;;;6190927;23;20233;-79
2022/05/25 08:14:31;;;;;;;3.63;0.50;;;19.50;71.30;;;;;;6166290;23;20383;-80
2022/05/25 08:16:57;;;;;;;1.42;0.40;;;19.80;70.10;;;;;;6166088;23;20013;-80
2022/05/25 08:19:23;;;;;;;4.70;0.47;;;20.20;70.20;;;;;;6141955;23;20222;-80
2022/05/25 08:21:51;;;;;;;4.13;0.63;;;20.40;69.80;;;;;;6193543;23;20013;-79
2022/05/25 08:24:17;;;;;;;2.55;0.85;;;20.70;70.50;;;;;;6191832;23;20009;-79
2022/05/25 08:26:43;;;;;;;3.22;0.50;;;21.20;68.40;;;;;;6167463;23;20332;-80
2022/05/25 08:29:10;;;;;;;3.55;0.50;;;21.20;67.80;;;;;;6192741;23;20020;-80
2022/05/25 08:31:36;;;;;;;8.77;1.15;;;21.10;68.40;;;;;;6193622;23;20017;-78
2022/05/25 08:34:08;;;;;;;2.75;0.45;;;21.10;68.10;;;;;;6192386;23;20008;-78
2022/05/25 08:40:23;;;;;;;2.78;0.40;;;21.70;68.10;;;;;;6192541;23;20031;-80
2022/05/25 08:42:52;;;;;;;2.80;0.60;;;21.90;66.50;;;;;;6166832;23;20250;-79
2022/05/25 08:45:20;;;;;;;1.20;0.40;;;21.60;66.60;;;;;;6165382;23;20009;-79
2022/05/25 08:47:52;;;;;;;1.80;0.82;;;21.20;66.10;;;;;;6166497;23;20005;-79
2022/05/25 08:50:18;;;;;;;3.95;0.50;;;21.00;65.70;;;;;;6166411;23;20008;-78
2022/05/25 08:52:45;;;;;;;1.77;0.43;;;21.00;66.20;;;;;;6193058;23;20001;-79
2022/05/25 08:55:12;;;;;;;3.78;0.50;;;21.20;66.30;;;;;;6192363;23;20016;-80
2022/05/25 08:57:48;;;;;;;2.28;0.35;;;21.50;65.70;;;;;;6192492;23;20095;-80
2022/05/25 09:25:03;;;;;;;3.83;0.50;;;20.20;68.10;;;;;;6076280;23;20071;-80
2022/05/25 09:27:38;;;;;;;2.08;0.30;;;20.70;68.80;;;;;;6075333;23;20003;-80
2022/05/25 09:30:04;;;;;;;2.20;0.35;;;21.00;67.70;;;;;;6074729;23;20014;-80
2022/05/25 09:32:46;;;;;;;2.42;0.38;;;21.40;66.30;;;;;;6075748;23;20058;-80
2022/05/25 09:35:17;;;;;;;2.13;0.40;;;21.40;63.90;;;;;;6073523;23;20011;-79
2022/05/25 09:37:46;;;;;;;1.75;0.50;;;21.50;63.80;;;;;;6075501;23;20003;-78
2022/05/25 09:40:32;;;;;;;1.63;0.30;;;21.90;63.50;;;;;;6075317;23;20003;-78
2022/05/25 09:42:58;;;;;;;1.65;0.22;;;22.10;63.00;;;;;;6063735;23;20296;-80
2022/05/25 09:45:29;;;;;;;1.67;0.20;;;22.30;63.10;;;;;;6072979;23;20374;-78
2022/05/25 09:47:55;;;;;;;3.38;0.38;;;22.30;63.00;;;;;;6050165;23;20011;-79
2022/05/25 09:50:32;;;;;;;0.98;0.30;;;22.30;63.40;;;;;;6074389;23;20110;-78
2022/05/25 09:53:03;;;;;;;3.00;0.60;;;22.30;62.90;;;;;;6075407;23;20062;-79
2022/05/25 09:55:34;;;;;;;1.67;0.30;;;22.20;62.00;;;;;;6074961;23;20002;-78
2022/05/25 09:58:09;;;;;;;3.05;0.98;;;22.10;62.50;;;;;;6049603;23;20010;-77
2022/05/25 10:00:35;;;;;;;3.72;0.68;;;22.10;62.70;;;;;;6074754;23;20025;-78
2022/05/25 10:03:22;;;;;;;4.53;0.77;;;21.90;65.00;;;;;;6099577;23;20007;-78
2022/05/25 10:05:57;;;;;;;1.67;0.40;;;22.10;63.60;;;;;;6078455;23;20037;-79
2022/05/25 10:08:39;;;;;;;4.20;0.43;;;22.20;63.70;;;;;;6103661;23;20062;-79
2022/05/25 10:11:14;;;;;;;1.70;0.50;;;22.30;62.00;;;;;;6078578;23;20165;-80
2022/05/25 10:13:42;;;;;;;4.68;0.60;;;22.30;63.60;;;;;;6103526;23;20237;-79
2022/05/25 10:16:25;;;;;;;1.73;0.30;;;22.30;62.10;;;;;;6102428;23;20268;-81
2022/05/25 10:18:52;;;;;;;4.82;0.80;;;22.10;62.90;;;;;;6094282;23;20025;-78
2022/05/25 10:21:26;;;;;;;1.38;0.40;;;22.20;64.20;;;;;;6131075;23;20006;-79
2022/05/25 10:23:52;;;;;;;1.73;0.32;;;22.40;62.50;;;;;;6106521;23;20005;-80
2022/05/25 10:26:34;;;;;;;3.22;0.50;;;22.60;61.90;;;;;;6133103;23;20013;-77
2022/05/25 10:29:09;;;;;;;4.57;0.55;;;22.90;61.40;;;;;;6134107;23;20016;-79
2022/05/25 10:37:33;;;;;;;;;;;24.50;58.80;;;;;;6133372;23;20198;-78
2022/05/25 10:40:02;;;;;;;3.60;0.50;;;24.70;58.70;;;;;;6107882;23;19929;-80
2022/05/25 10:42:39;;;;;;;3.15;0.50;;;24.70;58.30;;;;;;6132759;23;19998;-79
2022/05/25 10:45:07;;;;;;;2.75;0.40;;;24.20;58.30;;;;;;6132625;23;20002;-79
2022/05/25 10:47:43;;;;;;;2.40;0.40;;;24.00;58.60;;;;;;6133178;23;20006;-79
2022/05/25 10:50:16;;;;;;;1.52;0.50;;;23.70;57.70;;;;;;6131521;23;20200;-79
2022/05/25 10:52:48;;;;;;;1.20;0.40;;;23.00;59.60;;;;;;6133696;23;20010;-79
2022/05/25 10:55:14;;;;;;;2.08;0.32;;;22.80;59.70;;;;;;6132901;23;20006;-80
2022/05/25 10:57:59;;;;;;;1.10;0.20;;;22.60;59.50;;;;;;6133156;23;20006;-80
2022/05/25 11:01:18;;;;;;;1.48;0.22;;;22.30;59.60;;;;;;6131891;23;20334;-80
2022/05/25 11:04:29;;;;;;;1.38;0.28;;;22.00;60.50;;;;;;6043583;23;20030;-80
2022/05/25 11:07:38;;;;;;;2.35;0.40;;;21.80;61.00;;;;;;6108172;23;20010;-80
2022/05/25 11:10:42;;;;;;;2.10;0.60;;;22.10;60.40;;;;;;6132887;23;20006;-79
2022/05/25 11:13:40;;;;;;;2.00;0.30;;;22.60;60.90;;;;;;6107631;23;20022;-79
2022/05/25 11:16:39;;;;;;;3.53;0.43;;;23.10;59.30;;;;;;6084066;23;20041;-79
2022/05/25 11:19:22;;;;;;;1.63;0.30;;;23.80;59.50;;;;;;6083455;23;20020;-78
2022/05/25 11:22:06;;;;;;;3.47;0.40;;;24.10;57.60;;;;;;6133258;23;20002;-80
2022/05/25 11:25:15;;;;;;;2.88;0.43;;;24.10;57.40;;;;;;6106974;23;20024;-81
2022/05/25 11:27:59;;;;;;;2.20;0.30;;;24.20;57.30;;;;;;6083235;23;20010;-80
2022/05/25 11:30:43;;;;;;;1.92;0.22;;;23.60;58.30;;;;;;6131833;23;20202;-80
2022/05/25 11:33:26;;;;;;;2.33;0.40;;;23.40;59.10;;;;;;6131686;23;20303;-80
2022/05/25 11:36:18;;;;;;;1.48;0.30;;;23.40;59.00;;;;;;6132799;23;20002;-80
2022/05/25 11:39:02;;;;;;;2.55;0.60;;;23.20;58.30;;;;;;6132761;23;20006;-80
2022/05/25 11:41:31;;;;;;;2.45;0.40;;;23.30;59.00;;;;;;6105245;23;20016;-81
2022/05/25 11:44:12;;;;;;;1.10;0.30;;;24.10;57.20;;;;;;6132671;23;20006;-78
2022/05/25 11:46:49;;;;;;;2.45;0.30;;;24.20;56.80;;;;;;6105842;23;20022;-79
2022/05/25 11:49:36;;;;;;;1.50;0.60;;;24.40;56.80;;;;;;6105917;23;20025;-80
2022/05/25 11:52:05;;;;;;;1.67;0.17;;;24.40;56.70;;;;;;6082808;23;20002;-80
2022/05/25 11:54:47;;;;;;;;;;;26.00;55.10;;;;;;6106664;23;20006;-80
2022/05/25 11:57:51;;;;;;;1.75;0.50;;;27.10;54.20;;;;;;6133001;23;19924;-79
2022/05/25 12:00:56;;;;;;;2.42;0.60;;;28.30;52.80;;;;;;6132268;23;20014;-79
2022/05/25 12:04:02;;;;;;;2.90;0.57;;;30.50;50.60;;;;;;6133121;23;20065;-79
2022/05/25 12:07:12;;;;;;;1.50;0.50;;;32.20;49.10;;;;;;6134366;23;20010;-80
2022/05/25 12:09:41;;;;;;;0.93;0.30;;;33.40;48.20;;;;;;6108391;23;20428;-80
2022/05/25 12:12:28;;;;;;;2.42;0.50;;;33.80;48.10;;;;;;6134269;23;19998;-80
2022/05/25 12:15:09;;;;;;;0.83;0.30;;;33.70;45.80;;;;;;6134526;23;20069;-81
2022/05/25 12:17:44;;;;;;;2.17;0.30;;;32.20;47.10;;;;;;6133230;23;20311;-81
2022/05/25 12:20:13;;;;;;;2.15;0.30;;;32.70;46.60;;;;;;6108996;23;20010;-81
2022/05/25 12:23:03;;;;;;;2.30;0.63;;;31.90;47.90;;;;;;6134563;23;20022;-83
2022/05/25 12:25:35;;;;;;;2.40;0.30;;;32.30;48.10;;;;;;6134235;23;20058;-80
2022/05/25 12:28:03;;;;;;;0.57;0.17;;;33.70;46.30;;;;;;6134686;23;20009;-80
2022/05/25 12:30:48;;;;;;;1.80;0.20;;;34.40;45.70;;;;;;6108006;23;19990;-80
2022/05/25 12:33:21;;;;;;;2.38;0.20;;;34.40;46.40;;;;;;6132350;23;20313;-80
2022/05/25 12:35:49;;;;;;;2.80;0.20;;;35.70;45.20;;;;;;6134766;23;20009;-81
2022/05/25 12:38:15;;;;;;;;;;;36.70;44.50;;;;;;6134790;23;20005;-81
2022/05/25 12:40:47;;;;;;;1.80;0.20;;;37.40;43.80;;;;;;6133156;23;20116;-81
2022/05/25 12:43:40;;;;;;;2.33;0.50;;;37.30;42.30;;;;;;6134434;23;20005;-81
2022/05/25 12:48:57;;;;;;;1.75;0.30;;;38.00;42.50;;;;;;6134248;23;20062;-83
2022/05/25 12:51:36;;;;;;;0.75;0.20;;;38.00;41.50;;;;;;6133683;23;20061;-81
2022/05/25 12:54:21;;;;;;;1.75;0.20;;;37.10;41.50;;;;;;6134023;23;20002;-81
2022/05/25 12:56:49;;;;;;;2.00;0.25;;;38.20;41.30;;;;;;6132514;23;20017;-81
2022/05/25 12:59:39;;;;;;;2.88;0.40;;;38.50;40.90;;;;;;6133680;23;20009;-82
2022/05/25 13:02:13;;;;;;;1.00;0.30;;;36.80;41.60;;;;;;6133399;23;20044;-81
2022/05/25 13:05:13;;;;;;;3.85;0.40;;;36.30;41.80;;;;;;6133897;23;20002;-81
2022/05/25 13:07:46;;;;;;;2.53;0.32;;;34.50;43.60;;;;;;6112330;23;20006;-82
2022/05/25 13:10:31;;;;;;;2.35;0.40;;;32.20;45.80;;;;;;6134281;23;20002;-78
2022/05/25 13:12:59;;;;;;;1.08;0.30;;;31.10;46.50;;;;;;6134541;23;20002;-81
2022/05/25 13:15:27;;;;;;;2.10;0.30;;;30.30;47.60;;;;;;6107291;23;20002;-80
2022/05/25 13:17:54;;;;;;;1.95;0.40;;;29.20;47.80;;;;;;6133787;23;20058;-79
2022/05/25 13:20:30;;;;;;;2.60;0.27;;;28.60;49.40;;;;;;6133245;23;20063;-80
2022/05/25 13:23:01;;;;;;;0.90;0.20;;;27.90;50.10;;;;;;6132494;23;19998;-80
2022/05/25 13:25:57;;;;;;;2.45;0.30;;;28.60;49.10;;;;;;6107745;23;20006;-81
2022/05/25 13:28:51;;;;;;;2.42;0.40;;;31.40;46.90;;;;;;6133905;23;20487;-82
2022/05/25 13:31:53;;;;;;;2.03;0.30;;;34.80;44.00;;;;;;6083190;23;20014;-82
2022/05/25 13:34:20;;;;;;;1.17;0.20;;;37.90;42.80;;;;;;6109764;23;20036;-82
2022/05/25 13:37:16;;;;;;;2.22;0.30;;;39.00;40.70;;;;;;6135410;23;20056;-82
2022/05/25 13:44:07;;;;;;;1.00;0.28;;;36.60;41.70;;;;;;6132961;23;20231;-83
2022/05/25 13:46:41;;;;;;;1.58;0.30;;;36.00;43.10;;;;;;6130614;23;20315;-82
2022/05/25 13:49:25;;;;;;;3.78;0.30;;;37.10;41.40;;;;;;6133877;23;20021;-82
2022/05/25 13:52:23;;;;;;;1.15;0.30;;;35.90;41.00;;;;;;6132647;23;20320;-83
2022/05/25 13:55:22;;;;;;;2.38;0.43;;;35.00;42.80;;;;;;6132909;23;20026;-81
2022/05/25 13:58:01;;;;;;;2.72;0.38;;;35.60;43.20;;;;;;6133865;23;20034;-83
2022/05/25 14:00:57;;;;;;;1.98;0.30;;;35.30;42.40;;;;;;6101416;23;20020;-81
2022/05/25 14:03:47;;;;;;;1.27;0.30;;;37.40;42.50;;;;;;6104494;23;20025;-81
2022/05/25 14:13:44;;;;;;;3.00;0.55;;;43.00;38.40;;;;;;6133458;23;20044;-80
2022/05/25 14:16:13;;;;;;;0.50;0.10;;;43.70;38.60;;;;;;6118611;23;20057;-81
2022/05/25 14:18:55;;;;;;;1.55;0.28;;;43.30;37.90;;;;;;6132472;23;20041;-80
2022/05/25 14:21:33;;;;;;;3.08;0.30;;;42.70;37.50;;;;;;6132941;23;20287;-82
2022/05/25 14:24:04;;;;;;;1.70;0.32;;;41.20;38.00;;;;;;6133826;23;20037;-80
2022/05/25 14:26:34;;;;;;;1.45;0.20;;;41.60;38.60;;;;;;6083060;23;20036;-82
2022/05/25 14:29:11;;;;;;;1.48;0.22;;;41.80;38.70;;;;;;6107615;23;20010;-82
2022/05/25 14:32:12;;;;;;;1.90;0.20;;;41.60;38.00;;;;;;6107109;23;20073;-82
2022/05/25 14:34:47;;;;;;;1.25;0.40;;;41.50;38.00;;;;;;6101230;23;20009;-82
2022/05/25 14:37:27;;;;;;;3.13;0.32;;;41.80;38.00;;;;;;6109448;23;20018;-82
2022/05/25 14:40:05;;;;;;;1.15;0.22;;;41.20;38.50;;;;;;6108010;23;20006;-82
2022/05/25 14:43:00;;;;;;;2.05;0.30;;;41.40;38.20;;;;;;6107582;23;20284;-83
2022/05/25 14:45:28;;;;;;;2.72;0.20;;;40.80;38.80;;;;;;6067802;23;20025;-79
2022/05/25 14:48:04;;;;;;;2.30;0.38;;;41.00;38.30;;;;;;6133640;23;20006;-82
2022/05/25 14:50:43;;;;;;;3.70;0.28;;;41.00;38.30;;;;;;6107110;23;20010;-81
2022/05/25 14:53:34;;;;;;;1.27;0.22;;;41.10;37.80;;;;;;6132581;23;20029;-80
2022/05/25 14:56:23;;;;;;;1.40;0.30;;;40.30;38.40;;;;;;6133531;23;20038;-80
2022/05/25 14:59:48;;;;;;;1.35;0.30;;;40.90;38.40;;;;;;6109094;23;20265;-80
2022/05/25 15:02:32;;;;;;;1.65;0.30;;;42.40;38.30;;;;;;6114208;23;20022;-82
2022/05/25 15:04:58;;;;;;;1.77;0.25;;;43.40;37.50;;;;;;6132938;23;20034;-82
2022/05/25 15:07:27;;;;;;;1.25;0.30;;;42.70;37.10;;;;;;6106846;23;20006;-82
2022/05/25 15:09:55;;;;;;;2.10;0.35;;;42.20;37.30;;;;;;6106981;23;20002;-79
2022/05/25 15:12:25;;;;;;;1.80;0.30;;;41.80;38.00;;;;;;6082929;23;20069;-80
2022/05/25 15:18:30;;;;;;;2.10;0.38;;;40.70;38.60;;;;;;6078117;23;20311;-80
2022/05/25 15:21:02;;;;;;;1.77;0.20;;;41.40;38.00;;;;;;6130695;23;20036;-80
2022/05/25 15:23:37;;;;;;;2.90;0.35;;;41.20;37.90;;;;;;6108436;23;20006;-81
2022/05/25 15:26:25;;;;;;;1.58;0.45;;;41.70;38.60;;;;;;6132683;23;19998;-81
2022/05/25 15:29:19;;;;;;;1.15;0.30;;;42.70;37.10;;;;;;6134695;23;20029;-81
2022/05/25 15:31:46;;;;;;;2.17;0.25;;;41.10;37.40;;;;;;6130876;23;20018;-81
2022/05/25 15:34:15;;;;;;;1.55;0.30;;;41.10;37.90;;;;;;6133998;23;20005;-79
2022/05/25 15:36:41;;;;;;;0.90;0.17;;;40.60;38.30;;;;;;6133848;23;20045;-78
2022/05/25 15:39:07;;;;;;;1.52;0.20;;;40.40;38.20;;;;;;6135283;23;20010;-81
2022/05/25 15:41:33;;;;;;;2.25;0.20;;;40.40;38.30;;;;;;6109920;23;20012;-79
2022/05/25 15:43:58;;;;;;;1.65;0.28;;;39.10;38.30;;;;;;6132961;23;20044;-79
2022/05/25 15:46:44;;;;;;;2.50;0.50;;;38.10;40.00;;;;;;6112685;23;20018;-80
2022/05/25 15:49:17;;;;;;;1.67;0.50;;;37.20;40.30;;;;;;6106363;23;20010;-80
2022/05/25 15:52:03;;;;;;;2.35;0.30;;;37.20;39.80;;;;;;6107088;23;20002;-80
2022/05/25 15:54:34;;;;;;;2.13;0.43;;;37.50;40.10;;;;;;6107366;23;20065;-79
2022/05/25 15:57:00;;;;;;;1.90;0.30;;;37.30;40.20;;;;;;6132870;23;20039;-80
2022/05/25 15:59:32;;;;;;;2.30;0.30;;;38.40;40.70;;;;;;6132295;23;20177;-80
2022/05/25 16:02:00;;;;;;;1.02;0.30;;;39.80;39.00;;;;;;6132181;23;20026;-80
2022/05/25 16:04:40;;;;;;;2.08;0.20;;;40.70;38.20;;;;;;6107121;23;20069;-79
2022/05/25 16:07:10;;;;;;;1.27;0.28;;;40.60;38.20;;;;;;6107510;23;20058;-80
2022/05/25 16:09:42;;;;;;;1.38;0.30;;;40.80;38.10;;;;;;6131035;23;20251;-81
2022/05/25 16:12:15;;;;;;;3.15;0.52;;;40.80;38.10;;;;;;6133052;23;20006;-80
2022/05/25 16:14:45;;;;;;;1.85;0.30;;;41.00;37.90;;;;;;6132860;23;20065;-80
2022/05/25 16:17:13;;;;;;;2.60;0.32;;;41.00;37.70;;;;;;6131940;23;20021;-81
2022/05/25 16:19:39;;;;;;;1.20;0.20;;;40.00;38.30;;;;;;6132340;23;20006;-82
2022/05/25 16:22:06;;;;;;;2.60;0.40;;;38.90;38.80;;;;;;6133301;23;20058;-81
2022/05/25 16:24:36;;;;;;;3.08;0.30;;;36.70;40.10;;;;;;6106727;23;20002;-82
2022/05/25 16:27:11;;;;;;;2.78;0.60;;;34.30;41.70;;;;;;6106721;23;20009;-81
2022/05/25 16:36:42;;;;;;;2.70;0.40;;;32.00;44.70;;;;;;6043515;23;20003;-80
2022/05/25 16:39:38;;;;;;;2.58;0.30;;;31.00;45.70;;;;;;6044091;23;20011;-81
2022/05/25 16:50:33;;;;;;;2.25;0.38;;;28.50;48.60;;;;;;5991914;23;20003;-80
2022/05/25 16:57:26;;;;;;;2.90;0.40;;;28.00;49.40;;;;;;5932717;24;20050;-80
2022/05/25 17:06:48;;;;;;;3.90;0.50;;;28.60;49.00;;;;;;6154599;23;19974;-81
2022/05/25 17:09:42;;;;;;;;;;;;;;;;;;;;;
2022/05/25 17:27:35;;;;;;;1.45;0.30;;;30.80;46.10;;;;;;6149110;23;20298;-80
2022/05/25 17:33:54;;;;;;;2.22;0.30;;;30.30;46.40;;;;;;6222549;23;19922;-80
2022/05/25 17:54:55;;;;;;;1.77;0.28;;;30.10;46.70;;;;;;6101747;23;20127;-79
2022/05/25 17:57:53;;;;;;;0.93;0.30;;;29.60;46.90;;;;;;6078409;23;20006;-80
2022/05/25 18:00:32;;;;;;;1.58;0.40;;;29.20;47.50;;;;;;6078225;23;20006;-80
2022/05/25 18:02:58;;;;;;;2.63;0.60;;;28.70;48.50;;;;;;6049376;23;20015;-80
2022/05/25 18:16:39;;;;;;;1.63;0.50;;;25.90;51.90;;;;;;6201112;22;20020;-81
2022/05/25 18:20:13;;;;;;;1.65;0.40;;;25.50;52.50;;;;;;6131301;23;20013;-80
2022/05/25 18:23:02;;;;;;;2.03;0.80;;;24.60;54.00;;;;;;6130761;23;20094;-82
2022/05/25 18:25:30;;;;;;;3.92;0.50;;;24.20;55.10;;;;;;6130713;23;20006;-79
2022/05/25 18:28:21;;;;;;;2.40;0.30;;;23.90;54.80;;;;;;6105185;23;20243;-83
2022/05/25 18:31:37;;;;;;;2.17;0.60;;;23.50;55.60;;;;;;6105755;23;20114;-81
2022/05/25 18:38:48;;;;;;;1.83;0.43;;;22.70;57.10;;;;;;6019215;23;20008;-80
2022/05/25 19:02:15;;;;;;;15.52;10.68;;;21.50;59.80;;;;;;6102836;23;20338;-79
2022/05/25 19:18:41;;;;;;;6.47;3.58;;;20.40;62.50;;;;;;6069171;23;20053;-79
2022/05/25 19:28:32;;;;;;;19.05;12.95;;;20.10;63.40;;;;;;6010737;23;20048;-79
2022/05/25 19:30:57;;;;;;;10.43;4.55;;;19.80;63.60;;;;;;6002986;23;20581;-78
2022/05/25 19:33:23;;;;;;;7.32;3.70;;;19.70;64.00;;;;;;5968140;23;20177;-78
2022/05/25 19:36:11;;;;;;;7.03;2.17;;;19.60;64.40;;;;;;5990613;23;20098;-78
2022/05/25 19:38:59;;;;;;;2.85;0.80;;;19.50;64.70;;;;;;6014847;23;20015;-79
2022/05/25 21:51:53;;;;;;;3.08;0.80;;;17.20;73.20;;;;;;6163867;23;20210;-78
2022/05/25 22:10:56;;;;;;;2.72;1.15;;;16.70;75.80;;;;;;6138190;22;20028;-79
2022/05/25 22:16:52;;;;;;;1.58;0.60;;;16.60;76.10;;;;;;6131408;23;20021;-77
2022/05/25 22:19:21;;;;;;;1.48;0.70;;;16.50;75.90;;;;;;6162701;23;20065;-77
2022/05/25 22:21:51;;;;;;;1.90;0.60;;;16.50;75.80;;;;;;6135175;23;20013;-78
2022/05/25 22:24:30;;;;;;;4.22;0.90;;;16.40;76.00;;;;;;6161726;23;19992;-78
2022/05/25 22:27:14;;;;;;;2.25;0.60;;;16.40;76.00;;;;;;6135996;23;20032;-77
2022/05/25 22:29:42;;;;;;;1.70;0.60;;;16.40;76.30;;;;;;6136073;23;20113;-78
2022/05/25 22:32:09;;;;;;;1.58;0.68;;;16.40;76.40;;;;;;6136170;23;20072;-79
2022/05/25 22:35:35;;;;;;;3.03;0.90;;;16.30;76.70;;;;;;6161166;23;20072;-78
2022/05/25 22:38:30;;;;;;;3.85;0.98;;;16.20;77.00;;;;;;6130320;23;20017;-77
2022/05/25 22:40:56;;;;;;;2.53;0.70;;;16.20;76.90;;;;;;6160100;23;20188;-79
2022/05/25 22:43:46;;;;;;;4.25;0.70;;;16.10;77.20;;;;;;6162372;23;20021;-78
